Time;durP1;ratioP1;P1;durP2;ratioP2;P2;SDS_P1;SDS_P2;PMS_P1;PMS_P2;Temp;Humidity;BMP_temperature;BMP_pressure;BME280_temperature;BME280_humidity;BME280_pressure;Samples;Min_cycle;Max_cycle;Signal;HPM_P1;HPM_P2
2024/03/03 00:00:35;;;;;;;17.85;12.65;;;5.00;99.90;;;;;;5047982;28;20206;-62
2024/03/03 00:03:02;;;;;;;17.05;13.10;;;5.00;99.90;;;;;;5047765;28;20220;-62
2024/03/03 00:05:29;;;;;;;19.58;14.00;;;5.00;99.90;;;;;;5048681;28;20210;-61
2024/03/03 00:07:55;;;;;;;16.30;13.60;;;4.90;99.90;;;;;;5059140;28;20225;-61
2024/03/03 00:10:22;;;;;;;17.95;13.70;;;4.90;99.90;;;;;;5044199;28;20206;-63
2024/03/03 00:12:49;;;;;;;20.05;14.23;;;4.90;99.90;;;;;;5047655;28;20654;-62
2024/03/03 00:15:16;;;;;;;15.50;12.43;;;4.90;99.90;;;;;;5047652;28;20213;-60
2024/03/03 00:17:44;;;;;;;17.58;13.63;;;4.90;99.90;;;;;;5047507;28;20222;-60
2024/03/03 00:20:12;;;;;;;15.20;12.73;;;4.90;99.90;;;;;;5047526;28;20237;-61
2024/03/03 00:22:39;;;;;;;15.65;13.38;;;4.90;99.90;;;;;;5062260;28;20232;-60
2024/03/03 00:25:06;;;;;;;18.15;11.23;;;4.80;99.90;;;;;;5050067;28;20206;-62
2024/03/03 00:27:33;;;;;;;18.33;16.08;;;4.80;99.90;;;;;;5047450;28;20213;-62
2024/03/03 00:30:00;;;;;;;23.45;15.48;;;4.80;99.90;;;;;;5059832;28;20598;-62
2024/03/03 00:32:27;;;;;;;22.63;14.50;;;4.80;99.90;;;;;;5047428;28;20206;-62
2024/03/03 00:34:56;;;;;;;16.73;14.63;;;4.80;99.90;;;;;;5047272;28;20215;-61
2024/03/03 00:37:23;;;;;;;16.42;13.60;;;4.80;99.90;;;;;;5051950;28;20732;-62
2024/03/03 00:39:50;;;;;;;16.55;12.95;;;4.80;99.90;;;;;;5046819;28;20230;-62
2024/03/03 00:42:17;;;;;;;15.27;12.00;;;4.90;99.90;;;;;;5051986;28;20222;-61
2024/03/03 00:44:43;;;;;;;19.17;14.07;;;4.80;99.90;;;;;;5046544;28;20210;-62
2024/03/03 00:47:10;;;;;;;20.38;13.32;;;4.80;99.90;;;;;;5046046;28;20287;-61
2024/03/03 00:49:37;;;;;;;18.02;13.23;;;4.80;99.90;;;;;;5054877;28;20218;-61
2024/03/03 00:52:06;;;;;;;14.80;13.00;;;4.80;99.90;;;;;;5049696;28;20238;-60
2024/03/03 00:54:33;;;;;;;17.48;12.85;;;4.70;99.90;;;;;;5059347;28;20210;-60
2024/03/03 00:56:58;;;;;;;16.33;14.35;;;4.70;99.90;;;;;;5053871;28;20220;-62
2024/03/03 00:59:25;;;;;;;13.73;11.60;;;4.70;99.90;;;;;;5046997;28;20234;-63
2024/03/03 01:01:52;;;;;;;19.90;13.32;;;4.70;99.90;;;;;;5047440;28;20532;-60
2024/03/03 01:04:19;;;;;;;20.67;12.77;;;4.70;99.90;;;;;;5046695;28;20207;-62
2024/03/03 01:06:46;;;;;;;23.50;13.90;;;4.60;99.90;;;;;;5047039;28;20233;-63
2024/03/03 01:09:14;;;;;;;15.48;11.82;;;4.60;99.90;;;;;;5046895;28;20222;-60
2024/03/03 01:11:42;;;;;;;16.95;11.70;;;4.60;99.90;;;;;;5046821;28;20295;-62
2024/03/03 01:14:09;;;;;;;17.63;13.80;;;4.50;99.90;;;;;;5047878;28;20255;-61
2024/03/03 01:16:36;;;;;;;15.15;11.70;;;4.50;99.90;;;;;;5051406;28;20208;-61
2024/03/03 01:19:03;;;;;;;15.95;11.32;;;4.50;99.90;;;;;;5056372;28;20858;-62
2024/03/03 01:21:30;;;;;;;16.20;12.10;;;4.50;99.90;;;;;;5053420;28;20321;-61
2024/03/03 01:23:57;;;;;;;21.88;14.63;;;4.40;99.90;;;;;;5050445;28;20238;-62
2024/03/03 01:26:25;;;;;;;17.35;11.18;;;4.40;99.90;;;;;;5050946;28;20210;-63
2024/03/03 01:28:52;;;;;;;15.57;11.80;;;4.40;99.90;;;;;;5051367;28;20226;-59
2024/03/03 01:31:19;;;;;;;20.70;13.18;;;4.30;99.90;;;;;;5050777;28;20574;-62
2024/03/03 01:33:45;;;;;;;18.83;13.00;;;4.30;99.90;;;;;;5050520;28;20198;-61
2024/03/03 01:36:13;;;;;;;19.30;13.20;;;4.20;99.90;;;;;;5050740;28;20218;-61
2024/03/03 01:38:40;;;;;;;15.95;12.27;;;4.20;99.90;;;;;;5050579;28;20234;-62
2024/03/03 01:41:07;;;;;;;17.23;14.20;;;4.20;99.90;;;;;;5055162;28;20210;-60
2024/03/03 01:43:35;;;;;;;18.65;13.85;;;4.10;99.90;;;;;;5051668;28;20210;-61
2024/03/03 01:46:03;;;;;;;15.57;11.90;;;4.10;99.90;;;;;;5061389;28;20748;-60
2024/03/03 01:48:30;;;;;;;14.93;12.23;;;4.10;99.90;;;;;;5050404;28;20230;-61
2024/03/03 01:50:59;;;;;;;13.98;12.48;;;4.10;99.90;;;;;;5050146;28;20214;-61
2024/03/03 01:53:26;;;;;;;17.77;13.52;;;4.10;99.90;;;;;;5050463;28;20215;-62
2024/03/03 01:55:54;;;;;;;15.75;11.98;;;4.10;99.90;;;;;;5050289;28;20752;-60
2024/03/03 01:58:21;;;;;;;15.30;12.65;;;4.10;99.90;;;;;;5050391;28;20233;-62
2024/03/03 02:00:50;;;;;;;24.35;14.73;;;4.00;99.90;;;;;;5050148;28;20212;-62
2024/03/03 02:03:19;;;;;;;19.70;14.80;;;4.00;99.90;;;;;;5050390;28;20211;-63
2024/03/03 02:05:46;;;;;;;20.73;13.07;;;4.00;99.90;;;;;;5044650;28;20207;-61
2024/03/03 02:08:14;;;;;;;14.77;12.80;;;4.00;99.90;;;;;;5050915;28;20238;-62
2024/03/03 02:10:41;;;;;;;16.80;12.13;;;4.00;99.90;;;;;;5049207;28;20691;-62
2024/03/03 02:13:08;;;;;;;15.10;11.52;;;4.00;99.90;;;;;;5050540;28;20302;-60
2024/03/03 02:15:35;;;;;;;15.25;12.40;;;4.00;99.90;;;;;;5049047;28;20288;-59
2024/03/03 02:18:04;;;;;;;14.57;12.35;;;4.00;99.90;;;;;;5050851;28;20230;-60
2024/03/03 02:20:30;;;;;;;14.60;13.20;;;3.90;99.90;;;;;;5050936;28;20210;-61
2024/03/03 02:22:59;;;;;;;21.48;15.25;;;3.90;99.90;;;;;;5050583;28;20215;-61
2024/03/03 02:25:27;;;;;;;16.80;13.85;;;4.00;99.90;;;;;;5051254;28;20220;-60
2024/03/03 02:27:54;;;;;;;20.45;14.82;;;3.90;99.90;;;;;;5051188;28;20226;-61
2024/03/03 02:30:20;;;;;;;20.10;13.80;;;3.90;99.90;;;;;;5050910;28;20214;-60
2024/03/03 02:32:47;;;;;;;16.83;13.85;;;3.90;99.90;;;;;;5050254;28;20512;-62
2024/03/03 02:35:15;;;;;;;20.80;14.60;;;3.90;99.90;;;;;;5050991;28;20210;-59
2024/03/03 02:37:45;;;;;;;13.82;11.48;;;3.90;99.90;;;;;;5051186;28;20237;-59
2024/03/03 02:40:14;;;;;;;15.85;12.65;;;3.90;99.90;;;;;;5050911;28;20642;-59
2024/03/03 02:42:41;;;;;;;19.67;14.63;;;3.80;99.90;;;;;;5050496;28;20313;-61
2024/03/03 02:45:08;;;;;;;13.75;12.20;;;3.80;99.90;;;;;;5050686;28;20618;-62
2024/03/03 02:47:35;;;;;;;15.35;12.23;;;3.80;99.90;;;;;;5050605;28;20297;-62
2024/03/03 02:50:03;;;;;;;17.70;12.02;;;3.70;99.90;;;;;;5050582;28;20213;-60
2024/03/03 02:52:30;;;;;;;18.17;13.20;;;3.70;99.90;;;;;;5050341;28;20233;-61
2024/03/03 02:54:57;;;;;;;13.57;11.20;;;3.70;99.90;;;;;;5050577;28;20222;-61
2024/03/03 02:57:25;;;;;;;17.77;11.88;;;3.60;99.90;;;;;;5050602;28;20224;-61
2024/03/03 02:59:54;;;;;;;16.52;12.52;;;3.60;99.90;;;;;;5050457;28;20239;-62
2024/03/03 03:02:21;;;;;;;18.48;11.90;;;3.60;99.90;;;;;;5049999;28;20222;-61
2024/03/03 03:04:47;;;;;;;16.77;13.15;;;3.50;99.90;;;;;;5050486;28;20211;-62
2024/03/03 03:07:14;;;;;;;17.13;13.10;;;3.50;99.90;;;;;;5050692;28;20216;-61
2024/03/03 03:09:41;;;;;;;16.27;13.05;;;3.40;99.90;;;;;;5050292;28;20833;-59
2024/03/03 03:12:08;;;;;;;18.35;12.60;;;3.40;99.90;;;;;;5050070;28;20220;-61
2024/03/03 03:14:35;;;;;;;15.70;13.38;;;3.30;99.90;;;;;;5050074;28;20210;-61
2024/03/03 03:17:02;;;;;;;17.52;13.07;;;3.30;99.90;;;;;;5050395;28;20214;-62
2024/03/03 03:19:32;;;;;;;15.68;12.60;;;3.30;99.90;;;;;;5049875;28;20330;-60
2024/03/03 03:21:59;;;;;;;17.27;13.95;;;3.30;99.90;;;;;;5050099;28;20214;-62
2024/03/03 03:24:26;;;;;;;14.68;13.00;;;3.30;99.90;;;;;;5048444;28;20213;-61
2024/03/03 03:26:53;;;;;;;13.35;11.77;;;3.20;99.90;;;;;;5049400;28;20249;-62
2024/03/03 03:29:20;;;;;;;15.15;12.20;;;3.30;99.90;;;;;;5049590;28;20237;-61
2024/03/03 03:31:48;;;;;;;18.25;12.68;;;3.20;99.90;;;;;;5050153;28;20596;-62
2024/03/03 03:34:15;;;;;;;23.88;13.85;;;3.20;99.90;;;;;;5049351;28;20214;-61
2024/03/03 03:36:42;;;;;;;16.85;12.18;;;3.20;99.90;;;;;;5049345;28;20214;-62
2024/03/03 03:39:12;;;;;;;19.33;12.90;;;3.20;99.90;;;;;;5049432;28;20234;-62
2024/03/03 03:41:45;;;;;;;15.38;12.05;;;3.20;99.90;;;;;;5049894;28;20217;-61
2024/03/03 03:44:11;;;;;;;15.80;14.18;;;3.20;99.90;;;;;;5049542;28;20237;-60
2024/03/03 03:46:38;;;;;;;14.25;12.30;;;3.20;99.90;;;;;;5049599;28;20211;-61
2024/03/03 03:49:09;;;;;;;14.38;12.40;;;3.20;99.90;;;;;;5049435;28;20237;-62
2024/03/03 03:51:36;;;;;;;14.68;12.93;;;3.20;99.90;;;;;;5049515;28;20210;-61
2024/03/03 03:54:03;;;;;;;15.82;12.30;;;3.20;99.90;;;;;;5048906;28;20210;-61
2024/03/03 03:56:30;;;;;;;17.45;12.55;;;3.10;99.90;;;;;;5049599;28;20638;-59
2024/03/03 03:58:58;;;;;;;15.68;12.35;;;3.10;99.90;;;;;;5049449;28;20609;-61
2024/03/03 04:01:25;;;;;;;15.18;13.38;;;3.10;99.90;;;;;;5049288;28;20215;-61
2024/03/03 04:03:51;;;;;;;19.40;13.73;;;3.10;99.90;;;;;;5048832;28;20205;-61
2024/03/03 04:06:20;;;;;;;16.67;12.63;;;3.10;99.90;;;;;;5049270;28;20210;-62
2024/03/03 04:08:46;;;;;;;18.52;12.52;;;3.10;99.90;;;;;;5049149;28;20239;-62
2024/03/03 04:11:13;;;;;;;16.17;13.10;;;3.10;99.90;;;;;;5049353;28;20329;-62
2024/03/03 04:13:40;;;;;;;16.33;11.50;;;3.10;99.90;;;;;;5048966;28;20302;-60
2024/03/03 04:16:07;;;;;;;16.98;12.35;;;3.10;99.90;;;;;;5046626;28;20210;-60
2024/03/03 04:18:36;;;;;;;16.52;13.18;;;3.10;99.90;;;;;;5049063;28;20226;-60
2024/03/03 04:21:02;;;;;;;15.43;12.15;;;3.10;99.90;;;;;;5048819;28;20213;-62
2024/03/03 04:23:31;;;;;;;20.38;14.20;;;3.10;99.90;;;;;;5048425;28;20751;-61
2024/03/03 04:25:57;;;;;;;17.95;12.70;;;3.10;99.90;;;;;;5048849;28;20214;-62
2024/03/03 04:28:24;;;;;;;14.13;11.45;;;3.10;99.90;;;;;;5048836;28;20254;-61
2024/03/03 04:30:51;;;;;;;19.02;12.15;;;3.10;99.90;;;;;;5048495;28;20741;-61
2024/03/03 04:33:18;;;;;;;22.52;14.90;;;3.10;99.90;;;;;;5048519;28;20206;-60
2024/03/03 04:35:45;;;;;;;21.98;14.77;;;3.10;99.90;;;;;;5048661;28;20221;-61
2024/03/03 04:38:12;;;;;;;16.65;12.38;;;3.10;99.90;;;;;;5048611;28;20242;-61
2024/03/03 04:40:43;;;;;;;16.75;14.32;;;3.10;99.90;;;;;;5048420;28;20735;-60
2024/03/03 04:43:10;;;;;;;18.92;11.80;;;3.20;99.90;;;;;;5048192;28;20217;-62
2024/03/03 04:45:37;;;;;;;14.55;13.05;;;3.10;99.90;;;;;;5048966;28;20692;-62
2024/03/03 04:48:04;;;;;;;13.55;12.15;;;3.10;99.90;;;;;;5048447;28;20325;-62
2024/03/03 04:50:31;;;;;;;15.32;11.80;;;3.10;99.90;;;;;;5048127;28;20213;-63
2024/03/03 04:52:58;;;;;;;17.75;12.70;;;3.10;99.90;;;;;;5048234;28;20214;-62
2024/03/03 04:55:25;;;;;;;17.65;12.15;;;3.10;99.90;;;;;;5048601;28;20693;-59
2024/03/03 04:57:53;;;;;;;18.40;15.00;;;3.10;99.90;;;;;;5048321;28;20230;-61
2024/03/03 05:00:20;;;;;;;19.65;14.82;;;3.10;99.90;;;;;;5048175;28;20314;-61
2024/03/03 05:02:48;;;;;;;15.90;12.30;;;3.10;99.90;;;;;;5047917;28;20221;-58
2024/03/03 05:05:14;;;;;;;19.25;12.80;;;3.00;99.90;;;;;;5048390;28;20210;-60
2024/03/03 05:07:42;;;;;;;16.42;13.43;;;3.00;99.90;;;;;;5048229;28;20689;-61
2024/03/03 05:10:10;;;;;;;18.40;12.32;;;3.00;99.90;;;;;;5048020;28;20206;-62
2024/03/03 05:12:37;;;;;;;18.95;14.18;;;3.00;99.90;;;;;;5048039;28;20634;-61
2024/03/03 05:15:06;;;;;;;17.20;12.77;;;3.00;99.90;;;;;;5048389;28;20218;-60
2024/03/03 05:17:33;;;;;;;21.42;12.70;;;3.00;99.90;;;;;;5048293;28;20688;-60
2024/03/03 05:19:59;;;;;;;16.05;14.20;;;3.00;99.90;;;;;;5048200;28;20230;-64
2024/03/03 05:22:26;;;;;;;15.18;12.85;;;3.00;99.90;;;;;;5047965;28;20212;-60
2024/03/03 05:24:53;;;;;;;20.05;13.48;;;3.00;99.90;;;;;;5048149;28;20206;-60
2024/03/03 05:27:20;;;;;;;16.15;12.10;;;3.00;99.90;;;;;;5048217;28;20214;-59
2024/03/03 05:29:47;;;;;;;17.55;14.48;;;2.90;99.90;;;;;;5048008;28;20616;-61
2024/03/03 05:32:15;;;;;;;16.98;13.13;;;2.90;99.90;;;;;;5048213;28;20214;-61
2024/03/03 05:34:42;;;;;;;16.92;13.15;;;2.90;99.90;;;;;;5047671;28;20206;-61
2024/03/03 05:37:10;;;;;;;15.82;12.10;;;2.90;99.90;;;;;;5048023;28;20216;-62
2024/03/03 05:39:37;;;;;;;16.98;12.27;;;2.90;99.90;;;;;;5047611;28;20719;-60
2024/03/03 05:42:05;;;;;;;19.73;12.93;;;2.90;99.90;;;;;;5048270;28;20232;-60
2024/03/03 05:44:31;;;;;;;17.67;11.90;;;2.90;99.90;;;;;;5047564;28;20214;-60
2024/03/03 05:46:58;;;;;;;17.15;13.90;;;2.80;99.90;;;;;;5048147;28;20620;-61
2024/03/03 05:49:26;;;;;;;14.77;11.80;;;2.80;99.90;;;;;;5047829;28;20253;-61
2024/03/03 05:51:53;;;;;;;17.55;12.85;;;2.80;99.90;;;;;;5048100;28;20593;-62
2024/03/03 05:54:20;;;;;;;16.05;14.38;;;2.80;99.90;;;;;;5047588;28;20214;-62
2024/03/03 05:56:47;;;;;;;21.20;14.40;;;2.80;99.90;;;;;;5048180;28;20234;-62
2024/03/03 05:59:14;;;;;;;14.30;12.48;;;2.80;99.90;;;;;;5047709;28;20249;-63
2024/03/03 06:01:47;;;;;;;20.80;15.10;;;2.80;99.90;;;;;;5051443;28;20695;-62
2024/03/03 06:04:15;;;;;;;20.85;14.63;;;2.80;99.90;;;;;;5051041;28;20244;-62
2024/03/03 06:06:43;;;;;;;18.48;13.38;;;2.80;99.90;;;;;;5051491;28;20631;-61
2024/03/03 06:09:12;;;;;;;19.23;13.40;;;2.70;99.90;;;;;;5051414;28;20230;-61
2024/03/03 06:11:40;;;;;;;19.27;13.13;;;2.80;99.90;;;;;;5051618;28;20229;-62
2024/03/03 06:14:07;;;;;;;16.88;13.27;;;2.80;99.90;;;;;;5050876;28;20680;-60
2024/03/03 06:16:35;;;;;;;17.70;13.43;;;2.80;99.90;;;;;;5051392;28;20234;-61
2024/03/03 06:19:02;;;;;;;16.00;12.05;;;2.80;99.90;;;;;;5051251;28;20234;-61
2024/03/03 06:21:29;;;;;;;16.45;11.85;;;2.70;99.90;;;;;;5051283;28;20713;-62
2024/03/03 06:23:58;;;;;;;18.83;13.25;;;2.80;99.90;;;;;;5050852;28;20319;-62
2024/03/03 06:26:28;;;;;;;14.55;13.02;;;2.80;99.90;;;;;;5051655;28;20221;-62
2024/03/03 06:28:55;;;;;;;15.88;14.10;;;2.80;99.90;;;;;;5051384;28;20323;-62
2024/03/03 06:31:22;;;;;;;20.88;15.10;;;2.80;99.90;;;;;;5050939;28;20203;-62
2024/03/03 06:33:48;;;;;;;13.80;12.32;;;2.90;99.90;;;;;;5050919;28;20207;-62
2024/03/03 06:36:19;;;;;;;25.67;15.27;;;2.90;99.90;;;;;;5051190;28;20211;-60
2024/03/03 06:38:46;;;;;;;19.48;14.02;;;2.90;99.90;;;;;;5050838;28;20634;-60
2024/03/03 06:41:15;;;;;;;16.58;13.95;;;3.00;99.90;;;;;;5050733;28;20613;-61
2024/03/03 06:43:43;;;;;;;18.85;13.50;;;3.00;99.90;;;;;;5050378;28;20297;-61
2024/03/03 06:46:10;;;;;;;20.40;14.20;;;3.00;99.90;;;;;;5050702;28;20648;-62
2024/03/03 06:48:37;;;;;;;18.90;14.48;;;3.10;99.90;;;;;;5050873;28;20596;-62
2024/03/03 06:51:04;;;;;;;19.63;14.13;;;3.10;99.90;;;;;;5050726;28;20213;-62
2024/03/03 06:53:31;;;;;;;16.83;12.40;;;3.20;99.90;;;;;;5050330;28;20245;-62
2024/03/03 06:55:58;;;;;;;17.52;14.32;;;3.20;99.90;;;;;;5050845;28;20221;-61
2024/03/03 06:58:26;;;;;;;23.65;14.77;;;3.30;99.90;;;;;;5050670;28;20353;-61
2024/03/03 07:00:53;;;;;;;16.48;14.40;;;3.30;99.90;;;;;;5050861;28;20230;-63
2024/03/03 07:03:38;;;;;;;18.90;14.88;;;3.40;99.90;;;;;;5050516;28;20269;-61
2024/03/03 07:06:06;;;;;;;18.33;13.98;;;3.50;99.90;;;;;;5050464;28;20742;-61
2024/03/03 07:08:32;;;;;;;18.67;15.20;;;3.50;99.90;;;;;;5050471;28;20727;-62
2024/03/03 07:10:59;;;;;;;16.95;13.45;;;3.60;99.90;;;;;;5049733;28;20202;-62
2024/03/03 07:13:27;;;;;;;27.75;15.68;;;3.60;99.90;;;;;;5049174;28;20216;-61
2024/03/03 07:15:54;;;;;;;26.25;16.80;;;3.70;99.90;;;;;;5050386;28;20215;-61
2024/03/03 07:18:21;;;;;;;20.30;16.75;;;3.70;99.90;;;;;;5050238;28;20234;-61
2024/03/03 07:20:49;;;;;;;21.38;16.77;;;3.80;99.90;;;;;;5050058;28;20222;-60
2024/03/03 07:23:15;;;;;;;20.83;14.73;;;3.90;99.90;;;;;;5049620;28;20840;-62
2024/03/03 07:25:42;;;;;;;21.10;15.73;;;3.90;99.90;;;;;;5050071;28;20241;-62
2024/03/03 07:28:09;;;;;;;23.10;16.10;;;4.00;99.90;;;;;;5050189;28;20230;-62
2024/03/03 07:30:37;;;;;;;21.92;16.02;;;4.10;99.90;;;;;;5049862;28;20206;-63
2024/03/03 07:33:05;;;;;;;24.75;17.40;;;4.20;99.90;;;;;;5049826;28;20584;-63
2024/03/03 07:35:32;;;;;;;22.20;17.30;;;4.20;99.90;;;;;;5050193;28;20216;-63
2024/03/03 07:37:58;;;;;;;22.02;16.52;;;4.30;99.90;;;;;;5049834;28;20685;-62
2024/03/03 07:40:29;;;;;;;21.88;17.75;;;4.30;99.90;;;;;;5049520;28;20241;-60
2024/03/03 07:42:56;;;;;;;22.85;17.33;;;4.40;99.90;;;;;;5049431;28;20210;-61
2024/03/03 07:45:23;;;;;;;25.15;19.70;;;4.50;99.90;;;;;;5049828;28;20206;-62
2024/03/03 07:47:51;;;;;;;30.77;21.27;;;4.50;99.90;;;;;;5049582;28;20238;-62
2024/03/03 07:50:17;;;;;;;28.52;20.08;;;4.70;99.90;;;;;;5049424;28;20203;-62
2024/03/03 07:52:44;;;;;;;28.98;20.15;;;4.90;99.90;;;;;;5048875;28;20206;-62
2024/03/03 07:55:11;;;;;;;28.10;21.40;;;5.00;99.90;;;;;;5049709;28;20321;-62
2024/03/03 07:57:38;;;;;;;26.95;22.77;;;5.20;99.90;;;;;;5049542;28;20248;-61
2024/03/03 08:00:07;;;;;;;35.58;21.80;;;5.40;99.90;;;;;;5049108;28;20696;-62
2024/03/03 08:02:34;;;;;;;25.48;18.83;;;5.50;99.90;;;;;;5049082;28;20295;-60
2024/03/03 08:05:04;;;;;;;31.00;22.42;;;5.60;99.90;;;;;;5049558;28;20597;-62
2024/03/03 08:07:31;;;;;;;31.85;19.42;;;5.70;99.90;;;;;;5049612;28;20237;-62
2024/03/03 08:09:57;;;;;;;31.95;21.23;;;5.80;99.90;;;;;;5049306;28;20214;-60
2024/03/03 08:12:24;;;;;;;33.40;21.13;;;5.90;99.90;;;;;;5048844;28;20297;-62
2024/03/03 08:14:51;;;;;;;31.60;23.13;;;6.00;99.90;;;;;;5049184;28;20775;-62
2024/03/03 08:17:18;;;;;;;34.70;23.48;;;6.10;99.90;;;;;;5049208;28;20217;-62
2024/03/03 08:19:44;;;;;;;21.63;19.25;;;6.20;99.90;;;;;;5048705;28;20237;-62
2024/03/03 08:22:13;;;;;;;28.25;19.40;;;6.30;99.90;;;;;;5048842;28;20229;-62
2024/03/03 08:24:41;;;;;;;27.75;22.35;;;6.40;99.90;;;;;;5048535;28;20590;-62
2024/03/03 08:27:08;;;;;;;30.58;22.55;;;6.50;99.90;;;;;;5048984;28;20237;-62
2024/03/03 08:29:35;;;;;;;26.30;19.92;;;6.60;99.90;;;;;;5048601;28;20238;-62
2024/03/03 08:32:03;;;;;;;29.63;20.92;;;6.70;99.90;;;;;;5048882;28;20202;-63
2024/03/03 08:34:30;;;;;;;25.65;21.52;;;6.80;99.90;;;;;;5048261;28;20665;-62
2024/03/03 08:36:57;;;;;;;28.35;20.90;;;6.90;99.90;;;;;;5048857;28;20214;-64
2024/03/03 08:39:25;;;;;;;24.15;20.30;;;7.00;99.90;;;;;;5048753;28;20234;-63
2024/03/03 08:41:52;;;;;;;29.23;20.60;;;7.20;99.90;;;;;;5048822;28;20252;-63
2024/03/03 08:44:19;;;;;;;24.10;18.13;;;7.30;99.90;;;;;;5048135;28;20214;-63
2024/03/03 08:46:46;;;;;;;28.48;19.85;;;7.50;99.90;;;;;;5048568;28;20847;-63
2024/03/03 08:49:13;;;;;;;28.57;22.10;;;7.60;99.90;;;;;;5048552;28;20851;-62
2024/03/03 08:51:42;;;;;;;27.23;22.13;;;7.70;99.90;;;;;;5048471;28;20445;-62
2024/03/03 08:54:09;;;;;;;26.53;20.17;;;7.90;99.90;;;;;;5048063;28;20453;-63
2024/03/03 08:56:36;;;;;;;25.63;20.50;;;8.10;99.90;;;;;;5048339;28;20456;-62
2024/03/03 08:59:03;;;;;;;27.07;19.87;;;8.20;99.90;;;;;;5048145;28;20500;-64
2024/03/03 09:01:30;;;;;;;20.80;18.37;;;8.40;99.90;;;;;;5048238;28;20489;-62
2024/03/03 09:03:57;;;;;;;24.20;19.30;;;8.50;99.90;;;;;;5047812;28;20451;-62
2024/03/03 09:06:23;;;;;;;26.17;20.30;;;8.70;99.90;;;;;;5048376;28;20455;-62
2024/03/03 09:08:50;;;;;;;23.20;18.50;;;8.80;99.90;;;;;;5048541;28;20514;-63
2024/03/03 09:11:17;;;;;;;25.17;19.23;;;9.00;99.90;;;;;;5048345;28;20453;-62
2024/03/03 09:13:45;;;;;;;24.13;20.10;;;9.20;99.90;;;;;;5047876;28;20452;-62
2024/03/03 09:16:12;;;;;;;19.50;17.23;;;9.30;99.90;;;;;;5048366;28;20458;-62
2024/03/03 09:18:39;;;;;;;20.97;16.90;;;9.50;99.90;;;;;;5048469;28;20471;-62
2024/03/03 09:21:07;;;;;;;24.50;19.10;;;9.70;99.90;;;;;;5048170;28;21074;-62
2024/03/03 09:23:34;;;;;;;21.93;16.50;;;9.90;99.90;;;;;;5047833;28;20455;-62
2024/03/03 09:26:01;;;;;;;22.53;17.83;;;10.10;99.90;;;;;;5048220;28;20448;-62
2024/03/03 09:28:28;;;;;;;19.83;16.90;;;10.30;99.90;;;;;;5047027;28;20555;-62
2024/03/03 09:30:56;;;;;;;20.47;16.77;;;10.50;99.90;;;;;;5048126;28;20448;-62
2024/03/03 09:33:23;;;;;;;21.40;17.57;;;10.70;99.90;;;;;;5045528;28;20473;-64
2024/03/03 09:35:52;;;;;;;22.60;17.27;;;10.80;99.90;;;;;;5050184;28;20947;-63
2024/03/03 09:38:18;;;;;;;21.83;16.80;;;11.00;99.90;;;;;;5039902;28;20489;-63
2024/03/03 09:40:45;;;;;;;20.60;17.57;;;11.20;99.90;;;;;;5055503;28;20492;-62
2024/03/03 09:43:16;;;;;;;19.37;16.30;;;11.40;99.90;;;;;;5049976;28;20462;-63
2024/03/03 09:45:44;;;;;;;20.80;17.33;;;11.50;99.90;;;;;;5043105;28;20445;-62
2024/03/03 09:48:13;;;;;;;20.03;16.13;;;11.70;99.90;;;;;;5047867;28;21007;-63
2024/03/03 09:50:40;;;;;;;21.70;17.40;;;11.90;99.90;;;;;;5039991;28;20984;-62
2024/03/03 09:53:09;;;;;;;22.27;16.97;;;12.10;99.90;;;;;;5039525;28;20445;-63
2024/03/03 09:55:37;;;;;;;20.30;16.67;;;12.30;99.90;;;;;;5045389;28;20459;-63
2024/03/03 09:58:05;;;;;;;17.60;15.50;;;12.50;99.90;;;;;;5049058;28;20468;-63
2024/03/03 10:00:32;;;;;;;18.37;14.83;;;12.60;99.90;;;;;;5045298;28;20473;-63
2024/03/03 10:03:01;;;;;;;22.00;16.70;;;12.70;99.90;;;;;;5043155;28;20531;-63
2024/03/03 10:05:30;;;;;;;19.83;16.07;;;12.90;99.90;;;;;;5047660;28;20444;-63
2024/03/03 10:08:02;;;;;;;18.73;16.70;;;13.10;99.90;;;;;;5050855;28;20555;-63
2024/03/03 10:10:35;;;;;;;17.10;15.30;;;13.20;99.90;;;;;;5038266;28;21235;-63
2024/03/03 10:13:04;;;;;;;21.80;15.20;;;13.30;99.90;;;;;;5038989;28;20462;-63
2024/03/03 10:15:31;;;;;;;18.63;15.90;;;13.40;99.90;;;;;;5051319;28;20452;-63
2024/03/03 10:18:00;;;;;;;17.53;15.03;;;13.60;99.90;;;;;;5046224;28;20522;-62
2024/03/03 10:20:28;;;;;;;15.80;14.10;;;13.80;99.90;;;;;;5050717;28;20452;-63
2024/03/03 10:22:57;;;;;;;16.03;12.87;;;14.00;99.90;;;;;;5050179;28;20519;-63
2024/03/03 10:25:25;;;;;;;16.30;14.00;;;14.10;99.90;;;;;;5051111;28;20453;-63
2024/03/03 10:27:52;;;;;;;17.03;13.30;;;14.30;99.90;;;;;;5050074;28;20479;-63
2024/03/03 10:30:22;;;;;;;14.33;12.83;;;14.50;99.90;;;;;;5055555;28;20548;-63
2024/03/03 10:32:50;;;;;;;12.17;11.03;;;14.60;99.90;;;;;;5050068;28;20460;-63
2024/03/03 10:35:18;;;;;;;13.53;12.13;;;14.80;99.90;;;;;;5051041;28;20460;-63
2024/03/03 10:37:52;;;;;;;13.53;12.23;;;14.90;99.90;;;;;;5050469;28;20453;-63
2024/03/03 10:40:20;;;;;;;17.17;12.83;;;15.00;99.90;;;;;;5050472;28;21041;-63
2024/03/03 10:42:47;;;;;;;15.60;12.50;;;15.10;99.90;;;;;;5050088;28;20494;-64
2024/03/03 10:45:14;;;;;;;17.10;14.47;;;15.20;99.90;;;;;;5050513;28;21027;-63
2024/03/03 10:47:42;;;;;;;15.90;12.67;;;15.30;99.90;;;;;;5046557;28;20524;-62
2024/03/03 10:50:14;;;;;;;14.43;12.97;;;15.30;99.90;;;;;;5050041;28;20447;-64
2024/03/03 10:52:41;;;;;;;14.67;13.10;;;15.30;99.90;;;;;;5049925;28;20445;-62
2024/03/03 10:55:11;;;;;;;15.37;12.73;;;15.40;99.90;;;;;;5049543;28;20440;-62
2024/03/03 10:57:39;;;;;;;15.90;11.63;;;15.60;99.90;;;;;;5049877;28;20455;-63
2024/03/03 11:00:11;;;;;;;13.53;11.43;;;15.70;99.60;;;;;;5049811;28;20535;-63
2024/03/03 11:02:39;;;;;;;12.30;10.80;;;15.90;99.90;;;;;;5049472;28;20999;-63
2024/03/03 11:05:07;;;;;;;12.70;11.10;;;16.10;99.90;;;;;;5047124;28;20459;-63
2024/03/03 11:07:36;;;;;;;12.30;11.10;;;16.20;99.20;;;;;;5049018;28;20453;-63
2024/03/03 11:10:05;;;;;;;14.93;12.10;;;16.40;99.20;;;;;;5048337;28;20459;-63
2024/03/03 11:12:36;;;;;;;12.60;11.30;;;16.40;98.40;;;;;;5049118;28;20449;-63
2024/03/03 11:15:05;;;;;;;13.07;11.83;;;16.40;98.10;;;;;;5049395;28;20441;-63
2024/03/03 11:17:36;;;;;;;12.43;11.23;;;16.50;98.80;;;;;;5049574;28;20452;-63
2024/03/03 11:20:05;;;;;;;13.80;12.40;;;16.50;98.00;;;;;;5064749;28;20440;-63
2024/03/03 11:22:35;;;;;;;13.47;11.60;;;16.60;97.80;;;;;;5059780;28;20511;-64
2024/03/03 11:25:04;;;;;;;12.90;11.60;;;16.70;97.50;;;;;;5048586;28;20468;-63
2024/03/03 11:27:34;;;;;;;13.87;12.40;;;16.70;96.90;;;;;;5048731;28;20965;-63
2024/03/03 11:30:01;;;;;;;12.87;11.23;;;16.70;97.70;;;;;;5048634;28;20532;-62
2024/03/03 11:32:33;;;;;;;13.90;12.60;;;16.80;98.20;;;;;;5048595;28;20456;-63
2024/03/03 11:35:01;;;;;;;12.93;11.63;;;16.80;97.40;;;;;;5048656;28;20476;-63
2024/03/03 11:37:28;;;;;;;13.90;12.67;;;16.80;96.90;;;;;;5048257;28;20824;-63
2024/03/03 11:39:56;;;;;;;14.60;11.97;;;16.90;97.10;;;;;;5048799;28;20508;-62
2024/03/03 11:42:28;;;;;;;13.70;12.30;;;16.90;96.80;;;;;;5048218;28;20575;-63
2024/03/03 11:44:55;;;;;;;15.57;13.77;;;16.90;97.10;;;;;;5049035;28;21045;-63
2024/03/03 11:47:26;;;;;;;12.90;11.50;;;16.90;97.00;;;;;;5048867;28;20449;-63
2024/03/03 11:49:54;;;;;;;10.90;9.90;;;17.00;96.90;;;;;;5048694;28;20560;-62
2024/03/03 11:52:43;;;;;;;14.00;11.60;;;17.00;96.90;;;;;;5048889;28;20529;-66
2024/03/03 11:55:11;;;;;;;10.87;9.87;;;17.10;96.40;;;;;;5033756;28;20444;-63
2024/03/03 11:57:44;;;;;;;11.30;10.17;;;17.20;96.30;;;;;;5048323;28;20450;-62
2024/03/03 12:00:16;;;;;;;12.33;11.03;;;17.20;96.10;;;;;;5048436;28;20543;-62
2024/03/03 12:02:44;;;;;;;11.60;10.50;;;17.30;96.10;;;;;;5048213;28;20488;-62
2024/03/03 12:05:14;;;;;;;14.90;11.00;;;17.40;96.70;;;;;;5048517;28;21172;-63
2024/03/03 12:07:44;;;;;;;12.40;10.83;;;17.60;95.90;;;;;;5047382;28;20560;-63
2024/03/03 12:10:15;;;;;;;11.43;10.23;;;17.80;94.90;;;;;;5048191;28;20453;-64
2024/03/03 12:12:45;;;;;;;10.60;9.50;;;18.00;94.10;;;;;;5047875;28;20445;-63
2024/03/03 12:15:12;;;;;;;11.53;10.43;;;18.20;96.00;;;;;;5048376;28;20451;-63
2024/03/03 12:17:39;;;;;;;14.87;10.47;;;18.30;93.50;;;;;;5048147;28;20538;-63
2024/03/03 12:20:06;;;;;;;9.90;8.77;;;18.50;93.30;;;;;;5047960;28;20441;-63
2024/03/03 12:22:35;;;;;;;10.00;8.90;;;18.70;93.50;;;;;;5047961;28;20488;-63
2024/03/03 12:25:02;;;;;;;11.63;10.20;;;18.80;91.90;;;;;;5047914;28;20537;-63
2024/03/03 12:27:29;;;;;;;9.33;8.47;;;19.00;92.90;;;;;;5048002;28;20455;-63
2024/03/03 12:29:59;;;;;;;11.67;10.57;;;19.10;91.90;;;;;;5048281;28;20477;-63
2024/03/03 12:32:27;;;;;;;10.27;9.17;;;19.30;92.60;;;;;;5047153;28;20444;-63
2024/03/03 12:34:56;;;;;;;10.73;9.73;;;19.50;92.70;;;;;;5047879;28;20455;-63
2024/03/03 12:37:24;;;;;;;10.87;9.80;;;19.70;92.70;;;;;;5047524;28;20445;-64